createdAt,value
2018-12-04T00:01:48.959Z,3.10
2018-12-04T00:04:22.947Z,3.10
2018-12-04T00:06:57.447Z,3.20
2018-12-04T00:09:31.749Z,3.20
2018-12-04T00:12:05.871Z,3.20
2018-12-04T00:40:08.764Z,3.20
2018-12-04T00:42:43.447Z,3.20
2018-12-04T00:45:17.427Z,3.10
2018-12-04T00:47:51.927Z,3.10
2018-12-04T00:50:26.450Z,3.10
2018-12-04T00:53:08.400Z,3.20
2018-12-04T00:55:42.485Z,3.30
2018-12-04T00:58:16.854Z,3.30
2018-12-04T01:00:55.099Z,3.30
2018-12-04T01:03:29.665Z,3.30
2018-12-04T01:06:08.097Z,3.40
2018-12-04T01:08:42.373Z,3.30
2018-12-04T01:11:16.924Z,3.30
2018-12-04T01:13:51.650Z,3.30
2018-12-04T01:16:26.213Z,3.30
2018-12-04T01:19:04.677Z,3.30
2018-12-04T01:21:38.955Z,3.30
2018-12-04T01:24:13.533Z,3.30
2018-12-04T01:26:52.055Z,3.30
2018-12-04T01:29:26.414Z,3.30
2018-12-04T01:32:07.999Z,3.40
2018-12-04T01:34:46.355Z,3.40
2018-12-04T01:37:20.538Z,3.40
2018-12-04T01:39:55.030Z,3.40
2018-12-04T01:45:02.640Z,3.50
2018-12-04T01:47:36.701Z,3.50
2018-12-04T01:50:11.100Z,3.60
2018-12-04T01:52:45.116Z,3.50
2018-12-04T01:55:19.124Z,3.50
2018-12-04T01:57:57.335Z,3.50
2018-12-04T02:00:31.855Z,3.50
2018-12-04T02:03:06.094Z,3.50
2018-12-04T02:05:47.232Z,3.50
2018-12-04T02:08:28.452Z,3.40
2018-12-04T02:11:03.139Z,3.40
2018-12-04T02:13:37.777Z,3.40
2018-12-04T02:16:11.680Z,3.40
2018-12-04T02:18:52.942Z,3.40
2018-12-04T02:21:27.219Z,3.40
2018-12-04T02:24:01.481Z,3.40
2018-12-04T02:26:39.515Z,3.40
2018-12-04T02:29:13.751Z,3.40
2018-12-04T02:31:47.890Z,3.40
2018-12-04T02:34:22.046Z,3.40
2018-12-04T02:36:56.398Z,3.40
2018-12-04T02:39:30.593Z,3.40
2018-12-04T02:42:11.784Z,3.40
2018-12-04T02:44:46.408Z,3.40
2018-12-04T02:57:31.344Z,3.40
2018-12-04T03:00:07.005Z,3.40
2018-12-04T03:02:40.934Z,3.40
2018-12-04T03:05:15.230Z,3.40
2018-12-04T03:07:49.863Z,3.40
2018-12-04T03:10:31.027Z,3.40
2018-12-04T03:13:05.183Z,3.30
2018-12-04T03:15:39.423Z,3.40
2018-12-04T03:18:18.018Z,3.30
2018-12-04T03:20:52.418Z,3.40
2018-12-04T03:23:35.159Z,3.40
2018-12-04T03:26:13.846Z,3.40
2018-12-04T03:28:48.377Z,3.40
2018-12-04T03:31:22.631Z,3.40
2018-12-04T03:33:57.005Z,3.40
2018-12-04T03:36:31.127Z,3.40
2018-12-04T03:39:07.752Z,3.40
2018-12-04T03:41:41.660Z,3.40
2018-12-04T03:44:15.947Z,3.40
2018-12-04T03:46:50.215Z,3.40
2018-12-04T03:49:24.249Z,3.40
2018-12-04T03:51:58.673Z,3.40
2018-12-04T03:54:32.926Z,3.40
2018-12-04T03:57:07.403Z,3.40
2018-12-04T03:59:41.702Z,3.40
2018-12-04T04:02:16.086Z,3.40
2018-12-04T04:04:50.415Z,3.40
2018-12-04T04:07:24.498Z,3.40
2018-12-04T04:09:58.949Z,3.40
2018-12-04T04:12:33.043Z,3.40
2018-12-04T04:15:14.268Z,3.40
2018-12-04T04:17:52.486Z,3.40
2018-12-04T04:20:26.806Z,3.40
2018-12-04T04:23:01.245Z,3.40
2018-12-04T04:25:39.583Z,3.40
2018-12-04T04:28:17.687Z,3.40
2018-12-04T04:30:52.212Z,3.40
2018-12-04T04:33:26.392Z,3.40
2018-12-04T04:36:00.810Z,3.40
2018-12-04T04:38:34.876Z,3.40
2018-12-04T04:41:13.182Z,3.40
2018-12-04T04:43:47.142Z,3.40
2018-12-04T04:46:21.335Z,3.40
2018-12-04T04:48:59.983Z,3.40
2018-12-04T04:51:33.924Z,3.40
2018-12-04T04:54:08.206Z,3.40
2018-12-04T04:56:49.543Z,3.40
2018-12-04T04:59:23.774Z,3.40
2018-12-04T05:01:57.962Z,3.40
2018-12-04T05:04:32.708Z,3.30
2018-12-04T05:07:06.511Z,3.30
2018-12-04T05:09:40.781Z,3.40
2018-12-04T05:12:19.328Z,3.40
2018-12-04T05:15:02.902Z,3.40
2018-12-04T05:17:36.849Z,3.40
2018-12-04T05:20:11.000Z,3.40
2018-12-04T05:22:49.252Z,3.40
2018-12-04T05:25:27.837Z,3.40
2018-12-04T05:28:06.183Z,3.40
2018-12-04T05:30:40.423Z,3.40
2018-12-04T05:33:14.979Z,3.40
2018-12-04T05:35:49.219Z,3.30
2018-12-04T05:38:23.590Z,3.30
2018-12-04T05:41:01.848Z,3.30
2018-12-04T05:43:35.923Z,3.30
2018-12-04T05:46:10.118Z,3.30
2018-12-04T05:48:44.489Z,3.30
2018-12-04T05:51:18.455Z,3.20
2018-12-04T05:53:52.768Z,3.20
2018-12-04T05:56:27.187Z,3.20
2018-12-04T05:59:05.421Z,3.20
2018-12-04T06:01:46.570Z,3.20
2018-12-04T06:04:24.755Z,3.20
2018-12-04T06:07:03.254Z,3.20
2018-12-04T06:09:37.213Z,3.30
2018-12-04T06:12:11.254Z,3.20
2018-12-04T06:14:45.375Z,3.20
2018-12-04T06:17:19.351Z,3.20
2018-12-04T06:19:53.717Z,3.20
2018-12-04T06:22:35.667Z,3.20
2018-12-04T06:25:09.873Z,3.20
2018-12-04T06:27:48.522Z,3.20
2018-12-04T06:30:23.498Z,3.20
2018-12-04T06:32:57.893Z,3.20
2018-12-04T06:35:33.000Z,3.20
2018-12-04T06:38:11.412Z,3.20
2018-12-04T06:40:45.895Z,3.30
2018-12-04T06:43:24.077Z,3.60
2018-12-04T06:45:58.450Z,3.90
2018-12-04T06:48:32.675Z,4.00
2018-12-04T06:51:07.193Z,3.90
2018-12-04T06:53:41.731Z,3.70
2018-12-04T06:56:15.925Z,3.70
2018-12-04T06:58:51.646Z,3.60
2018-12-04T07:01:25.675Z,3.60
2018-12-04T07:04:05.398Z,3.60
2018-12-04T07:06:39.737Z,3.60
2018-12-04T07:09:19.081Z,3.60
2018-12-04T07:12:02.436Z,3.60
2018-12-04T07:14:34.846Z,3.60
2018-12-04T07:17:09.236Z,3.60
2018-12-04T07:19:47.202Z,3.60
2018-12-04T07:22:25.457Z,3.60
2018-12-04T07:25:08.045Z,3.60
2018-12-04T07:27:42.218Z,3.60
2018-12-04T07:30:20.568Z,3.60
2018-12-04T07:32:54.958Z,3.60
2018-12-04T07:35:28.919Z,3.60
2018-12-04T07:38:03.253Z,3.60
2018-12-04T07:40:38.014Z,3.60
2018-12-04T07:43:12.223Z,3.60
2018-12-04T07:45:46.597Z,3.70
2018-12-04T07:48:21.001Z,3.70
2018-12-04T07:50:55.500Z,3.70
2018-12-04T07:53:29.835Z,3.70
2018-12-04T07:56:04.195Z,3.70
2018-12-04T07:58:38.688Z,3.80
2018-12-04T08:01:12.994Z,3.80
2018-12-04T08:03:56.671Z,3.90
2018-12-04T08:06:30.771Z,3.90
2018-12-04T08:09:11.958Z,4.10
2018-12-04T08:11:46.455Z,4.40
2018-12-04T08:14:24.907Z,4.60
2018-12-04T08:16:59.047Z,4.60
2018-12-04T08:19:33.304Z,4.60
2018-12-04T08:22:07.544Z,4.60
2018-12-04T08:24:41.991Z,4.70
2018-12-04T08:27:23.713Z,4.80
2018-12-04T08:30:01.666Z,5.00
2018-12-04T08:32:35.754Z,5.20
2018-12-04T08:35:11.707Z,5.40
2018-12-04T08:37:46.127Z,5.40
2018-12-04T08:40:20.079Z,5.40
2018-12-04T08:42:54.476Z,5.40
2018-12-04T08:45:28.670Z,5.50
2018-12-04T08:48:02.782Z,5.50
2018-12-04T08:50:36.862Z,5.60
2018-12-04T08:53:11.261Z,5.60
2018-12-04T08:55:45.702Z,5.70
2018-12-04T08:58:19.603Z,5.70
2018-12-04T09:00:58.292Z,5.80
2018-12-04T09:03:32.598Z,6.20
2018-12-04T09:06:13.977Z,6.50
2018-12-04T09:13:57.642Z,8.20
2018-12-04T09:16:31.787Z,8.20
2018-12-04T09:19:06.218Z,7.60
2018-12-04T09:21:47.356Z,7.10
2018-12-04T09:24:21.999Z,6.90
2018-12-04T09:27:05.370Z,6.90
2018-12-04T09:29:36.732Z,7.00
2018-12-04T09:32:11.288Z,7.50
2018-12-04T09:34:52.552Z,7.90
2018-12-04T09:37:33.577Z,8.10
2018-12-04T09:40:08.799Z,7.90
2018-12-04T09:42:43.408Z,7.80
2018-12-04T09:45:17.695Z,7.80
2018-12-04T09:47:55.777Z,7.60
2018-12-04T09:50:30.291Z,7.50
2018-12-04T09:53:04.519Z,7.40
2018-12-04T09:55:38.678Z,7.30
2018-12-04T09:58:12.884Z,7.30
2018-12-04T10:00:47.030Z,7.20
2018-12-04T10:03:21.190Z,7.20
2018-12-04T10:05:55.659Z,7.20
2018-12-04T10:08:29.980Z,7.30
2018-12-04T10:11:04.707Z,7.40
2018-12-04T10:13:38.817Z,7.50
2018-12-04T10:16:13.387Z,7.80
2018-12-04T10:18:47.836Z,8.50
2018-12-04T10:21:26.705Z,9.20
2018-12-04T10:24:01.315Z,10.00
2018-12-04T10:26:35.688Z,10.60
2018-12-04T10:29:10.378Z,11.30
2018-12-04T10:31:44.560Z,12.20
2018-12-04T10:34:18.438Z,12.90
2018-12-04T10:36:52.647Z,13.30
2018-12-04T10:39:26.855Z,13.30
2018-12-04T10:42:04.976Z,13.40
2018-12-04T10:44:39.324Z,13.60
2018-12-04T10:47:13.763Z,13.50
2018-12-04T10:49:47.762Z,13.20
2018-12-04T10:52:22.411Z,13.00
2018-12-04T10:54:56.722Z,12.60
2018-12-04T10:57:38.029Z,12.20
2018-12-04T11:00:16.434Z,12.00
2018-12-04T11:02:50.743Z,11.80
2018-12-04T11:05:32.125Z,11.60
2018-12-04T11:08:06.549Z,11.60
2018-12-04T11:10:40.797Z,11.50
2018-12-04T11:13:15.120Z,11.40
2018-12-04T11:15:49.397Z,11.30
2018-12-04T11:18:23.633Z,11.20
2018-12-04T11:21:08.045Z,11.20
2018-12-04T11:23:42.054Z,11.20
2018-12-04T11:26:16.565Z,11.20
2018-12-04T11:28:50.648Z,11.20
2018-12-04T11:31:25.050Z,11.10
2018-12-04T11:34:03.553Z,11.10
2018-12-04T11:36:37.843Z,11.10
2018-12-04T11:39:12.090Z,11.10
2018-12-04T11:41:46.253Z,11.00
2018-12-04T11:44:20.499Z,11.00
2018-12-04T11:46:54.717Z,11.00
2018-12-04T11:49:29.026Z,11.00
2018-12-04T11:52:03.406Z,11.00
2018-12-04T11:54:37.722Z,11.00
2018-12-04T11:57:16.147Z,11.00
2018-12-04T11:59:50.283Z,11.00
2018-12-04T12:02:24.725Z,11.00
2018-12-04T12:04:58.889Z,11.00
2018-12-04T12:07:33.203Z,11.10
2018-12-04T12:10:07.615Z,11.20
2018-12-04T12:12:41.850Z,11.30
2018-12-04T12:15:19.891Z,11.20
2018-12-04T12:23:00.198Z,11.10
2018-12-04T12:25:34.494Z,11.10
2018-12-04T12:28:12.566Z,11.00
2018-12-04T12:30:50.901Z,10.90
2018-12-04T12:33:32.259Z,10.90
2018-12-04T12:36:06.824Z,10.90
2018-12-04T12:38:40.956Z,11.00
2018-12-04T12:41:15.146Z,10.90
2018-12-04T12:43:49.633Z,10.90
2018-12-04T12:46:23.917Z,10.90
2018-12-04T12:48:58.355Z,10.80
2018-12-04T12:51:32.354Z,10.80
2018-12-04T12:54:11.271Z,10.80
2018-12-04T12:56:45.716Z,10.80
2018-12-04T12:59:20.148Z,10.70
2018-12-04T13:01:58.380Z,10.70
2018-12-04T13:04:32.335Z,10.70
2018-12-04T13:07:06.827Z,10.70
2018-12-04T13:09:48.379Z,10.70
2018-12-04T13:12:22.579Z,10.60
2018-12-04T13:15:04.102Z,10.60
2018-12-04T13:17:38.089Z,10.60
2018-12-04T13:20:12.283Z,10.50
2018-12-04T13:22:50.572Z,10.50
2018-12-04T13:27:57.904Z,10.60
2018-12-04T13:30:36.213Z,10.50
2018-12-04T13:33:14.705Z,10.50
2018-12-04T13:35:48.966Z,10.30
2018-12-04T13:38:23.366Z,10.20
2018-12-04T13:40:58.013Z,10.20
2018-12-04T13:43:32.148Z,10.20
2018-12-04T13:46:07.067Z,10.20
2018-12-04T13:48:41.037Z,10.10
2018-12-04T13:51:15.546Z,10.10
2018-12-04T13:53:49.507Z,10.10
2018-12-04T13:56:24.039Z,10.10
2018-12-04T13:58:58.216Z,10.00
2018-12-04T14:01:32.406Z,9.90
2018-12-04T14:04:16.988Z,9.90
2018-12-04T14:06:50.485Z,9.90
2018-12-04T14:09:26.119Z,9.90
2018-12-04T14:12:00.333Z,9.90
2018-12-04T14:14:34.825Z,9.90
2018-12-04T14:17:13.028Z,9.90
2018-12-04T14:19:51.132Z,9.90
2018-12-04T14:22:29.219Z,9.80
2018-12-04T14:25:03.733Z,9.80
2018-12-04T14:30:08.181Z,9.80
2018-12-04T14:32:43.818Z,9.80
2018-12-04T14:35:24.682Z,9.70
2018-12-04T14:38:02.955Z,9.60
2018-12-04T14:40:37.287Z,9.60
2018-12-04T14:43:11.998Z,9.60
2018-12-04T14:45:46.700Z,9.50
2018-12-04T14:48:21.046Z,9.50
2018-12-04T14:50:55.413Z,9.40
2018-12-04T14:53:38.143Z,9.40
2018-12-04T14:56:12.270Z,9.30
2018-12-04T14:58:46.548Z,9.20
2018-12-04T15:01:21.317Z,9.20
2018-12-04T15:03:55.741Z,9.10
2018-12-04T15:06:29.836Z,9.00
2018-12-04T15:09:05.756Z,9.00
2018-12-04T15:11:40.196Z,8.90
2018-12-04T15:14:14.208Z,8.80
2018-12-04T15:16:54.867Z,8.70
2018-12-04T15:19:24.929Z,8.60
2018-12-04T15:21:59.375Z,8.60
2018-12-04T15:24:33.496Z,8.50
2018-12-04T15:27:07.830Z,8.50
2018-12-04T15:29:42.094Z,8.40
2018-12-04T15:32:21.302Z,8.40
2018-12-04T15:34:55.941Z,8.40
2018-12-04T15:37:30.833Z,8.40
2018-12-04T15:40:06.233Z,8.30
2018-12-04T15:42:40.452Z,8.30
2018-12-04T15:45:18.853Z,8.20
2018-12-04T15:47:56.817Z,8.20
2018-12-04T15:50:32.242Z,8.20
2018-12-04T15:53:06.374Z,8.20
2018-12-04T15:55:40.825Z,8.10
2018-12-04T15:58:15.174Z,8.10
2018-12-04T16:00:49.344Z,8.00
2018-12-04T16:03:23.412Z,8.00
2018-12-04T16:05:57.691Z,8.00
2018-12-04T16:08:32.103Z,8.00
2018-12-04T16:11:06.186Z,7.90
2018-12-04T16:13:40.406Z,8.00
2018-12-04T16:16:14.648Z,7.90
2018-12-04T16:18:48.951Z,7.90
2018-12-04T16:21:23.260Z,7.90
2018-12-04T16:23:57.377Z,7.80
2018-12-04T16:26:31.388Z,7.80
2018-12-04T16:29:13.122Z,7.80
2018-12-04T16:31:51.069Z,7.80
2018-12-04T16:34:25.337Z,7.80
2018-12-04T16:36:59.525Z,7.70
2018-12-04T16:39:33.788Z,7.70
2018-12-04T16:42:08.173Z,7.70
2018-12-04T16:44:42.653Z,7.60
2018-12-04T16:47:17.251Z,7.60
2018-12-04T16:49:55.512Z,7.70
2018-12-04T16:52:29.808Z,7.70
2018-12-04T16:55:11.135Z,7.60
2018-12-04T16:57:45.248Z,7.60
2018-12-04T17:00:19.503Z,7.60
2018-12-04T17:02:53.913Z,7.50
2018-12-04T17:05:28.135Z,7.50
2018-12-04T17:08:02.393Z,7.40
2018-12-04T17:10:36.256Z,7.30
2018-12-04T17:13:10.478Z,7.20
2018-12-04T17:15:44.610Z,7.20
2018-12-04T17:18:19.204Z,7.10
2018-12-04T17:20:53.427Z,7.00
2018-12-04T17:23:27.640Z,7.00
2018-12-04T17:26:01.875Z,6.90
2018-12-04T17:28:40.314Z,6.90
2018-12-04T17:31:14.775Z,6.80
2018-12-04T17:33:49.018Z,6.70
2018-12-04T17:36:23.022Z,6.70
2018-12-04T17:38:57.316Z,6.60
2018-12-04T17:41:31.364Z,6.70
2018-12-04T17:44:09.306Z,6.60
2018-12-04T17:46:43.958Z,6.50
2018-12-04T17:49:18.065Z,6.40
2018-12-04T17:51:52.413Z,6.40
2018-12-04T17:54:26.431Z,6.40
2018-12-04T17:57:01.044Z,6.50
2018-12-04T17:59:39.884Z,6.50
2018-12-04T18:02:18.282Z,6.50
2018-12-04T18:04:52.491Z,6.60
2018-12-04T18:07:26.629Z,6.60
2018-12-04T18:10:01.133Z,6.60
2018-12-04T18:12:35.346Z,6.70
2018-12-04T18:15:09.923Z,6.70
2018-12-04T18:17:44.467Z,6.70
2018-12-04T18:20:19.011Z,6.80
2018-12-04T18:22:53.350Z,6.80
2018-12-04T18:25:31.660Z,6.70
2018-12-04T18:28:06.009Z,6.70
2018-12-04T18:30:40.115Z,6.60
2018-12-04T18:33:14.035Z,6.70
2018-12-04T18:35:55.257Z,6.60
2018-12-04T18:38:29.796Z,6.60
2018-12-04T18:41:04.477Z,6.70
2018-12-04T18:43:39.646Z,6.70
2018-12-04T18:46:13.732Z,6.60
2018-12-04T18:48:48.010Z,6.60
2018-12-04T18:51:22.645Z,6.60
2018-12-04T18:53:56.628Z,6.60
2018-12-04T18:56:30.864Z,6.60
2018-12-04T18:59:05.645Z,6.50
2018-12-04T19:01:40.353Z,6.40
2018-12-04T19:04:15.075Z,6.30
2018-12-04T19:06:49.335Z,6.20
2018-12-04T19:09:23.605Z,6.10
2018-12-04T19:11:58.559Z,6.10
2018-12-04T19:14:32.706Z,6.00
2018-12-04T19:17:06.980Z,5.90
2018-12-04T19:19:41.350Z,5.90
2018-12-04T19:22:15.684Z,5.90
2018-12-04T19:24:50.132Z,5.90
2018-12-04T19:27:24.673Z,5.90
2018-12-04T19:29:59.625Z,5.90
2018-12-04T19:32:34.994Z,5.90
2018-12-04T19:35:11.523Z,5.80
2018-12-04T19:37:53.206Z,5.80
2018-12-04T19:40:27.136Z,5.80
2018-12-04T19:43:02.425Z,5.80
2018-12-04T19:45:40.820Z,5.70
2018-12-04T19:48:19.235Z,5.60
2018-12-04T19:50:53.729Z,5.60
2018-12-04T19:53:32.575Z,5.50
2018-12-04T19:56:14.357Z,5.50
2018-12-04T19:58:49.478Z,5.60
2018-12-04T20:01:23.925Z,5.70
2018-12-04T20:03:58.118Z,5.70
2018-12-04T20:06:39.420Z,5.80
2018-12-04T20:09:13.984Z,5.80
2018-12-04T20:11:48.421Z,5.70
2018-12-04T20:14:22.515Z,5.90
2018-12-04T20:16:57.269Z,5.80
2018-12-04T20:19:32.154Z,5.80
2018-12-04T20:22:06.408Z,5.80
2018-12-04T20:24:40.527Z,5.80
2018-12-04T20:27:15.052Z,5.70
2018-12-04T20:29:49.253Z,5.60
2018-12-04T20:32:23.678Z,5.60
2018-12-04T20:34:57.792Z,5.50
2018-12-04T20:37:39.357Z,5.50
2018-12-04T20:40:13.490Z,5.40
2018-12-04T20:42:51.604Z,5.40
2018-12-04T20:58:09.867Z,5.40
2018-12-04T21:00:51.569Z,5.30
2018-12-04T21:03:29.784Z,5.30
2018-12-04T21:06:08.051Z,5.20
2018-12-04T21:08:49.323Z,5.00
2018-12-04T21:11:23.710Z,4.90
2018-12-04T21:13:58.169Z,4.90
2018-12-04T21:16:36.939Z,4.90
2018-12-04T21:19:11.969Z,4.90
2018-12-04T21:21:46.632Z,4.90
2018-12-04T21:24:21.626Z,5.00
2018-12-04T21:27:00.260Z,4.90
2018-12-04T21:29:40.006Z,4.90
2018-12-04T21:32:23.753Z,4.80
2018-12-04T21:35:03.755Z,4.80
2018-12-04T21:37:43.261Z,4.70
2018-12-04T21:40:22.054Z,4.80
2018-12-04T21:43:01.362Z,4.90
2018-12-04T21:45:40.526Z,5.00
2018-12-04T21:48:23.522Z,5.10
2018-12-04T21:50:58.217Z,5.00
2018-12-04T21:53:32.436Z,4.90
2018-12-04T21:56:06.445Z,4.80
2018-12-04T22:06:18.890Z,4.60
2018-12-04T22:08:53.007Z,4.60
2018-12-04T22:11:27.777Z,4.60
2018-12-04T22:14:05.862Z,4.60
2018-12-04T22:16:40.361Z,4.50
2018-12-04T22:19:14.792Z,4.40
2018-12-04T22:21:53.323Z,4.40
2018-12-04T22:24:27.214Z,4.40
2018-12-04T22:27:01.467Z,4.30
2018-12-04T22:29:39.463Z,4.30
2018-12-04T22:32:13.813Z,4.30
2018-12-04T22:34:58.193Z,4.20
2018-12-04T22:37:32.316Z,4.30
2018-12-04T22:40:07.352Z,4.30
2018-12-04T22:42:42.072Z,4.20
2018-12-04T22:45:26.812Z,4.20
2018-12-04T22:48:04.981Z,4.10
2018-12-04T22:50:39.023Z,4.10
2018-12-04T22:53:13.168Z,4.10
2018-12-04T22:55:47.334Z,4.00
2018-12-04T22:58:21.663Z,4.00
2018-12-04T23:00:56.076Z,4.10
2018-12-04T23:03:30.945Z,4.00
2018-12-04T23:06:12.466Z,4.00
2018-12-04T23:08:51.163Z,3.90
2018-12-04T23:11:25.543Z,3.90
2018-12-04T23:14:10.652Z,4.00
2018-12-04T23:16:45.510Z,3.90
2018-12-04T23:19:19.776Z,3.90
2018-12-04T23:21:58.103Z,3.80
2018-12-04T23:24:32.383Z,3.90
2018-12-04T23:27:10.603Z,3.90
2018-12-04T23:29:44.955Z,3.80
2018-12-04T23:32:18.746Z,3.90
2018-12-04T23:34:52.764Z,3.80
2018-12-04T23:37:27.008Z,3.70
2018-12-04T23:40:06.633Z,3.60
2018-12-04T23:42:41.019Z,3.60
2018-12-04T23:45:15.082Z,3.70
2018-12-04T23:47:49.539Z,3.60
2018-12-04T23:50:23.888Z,3.60
2018-12-04T23:52:58.208Z,3.50
2018-12-04T23:55:32.342Z,3.50
2018-12-04T23:58:07.220Z,3.50
